sensor_id;sensor_type;location;lat;lon;timestamp;P1;durP1;ratioP1;P2;durP2;ratioP2
3627;SDS011;1830;49.000;12.074;2023-04-25T00:01:40;4.13;;;3.83;;
3627;SDS011;1830;49.000;12.074;2023-04-25T00:04:06;7.30;;;4.97;;
3627;SDS011;1830;49.000;12.074;2023-04-25T00:06:35;5.07;;;4.57;;
3627;SDS011;1830;49.000;12.074;2023-04-25T00:09:02;4.50;;;4.00;;
3627;SDS011;1830;49.000;12.074;2023-04-25T00:11:32;5.80;;;4.43;;
3627;SDS011;1830;49.000;12.074;2023-04-25T00:13:59;5.50;;;4.17;;
3627;SDS011;1830;49.000;12.074;2023-04-25T00:16:27;6.93;;;5.87;;
3627;SDS011;1830;49.000;12.074;2023-04-25T00:18:54;4.87;;;4.37;;
3627;SDS011;1830;49.000;12.074;2023-04-25T00:21:22;6.30;;;4.90;;
3627;SDS011;1830;49.000;12.074;2023-04-25T00:23:51;5.10;;;4.60;;
3627;SDS011;1830;49.000;12.074;2023-04-25T00:26:19;8.83;;;4.60;;
3627;SDS011;1830;49.000;12.074;2023-04-25T00:28:46;15.90;;;5.10;;
3627;SDS011;1830;49.000;12.074;2023-04-25T00:31:13;7.20;;;5.50;;
3627;SDS011;1830;49.000;12.074;2023-04-25T00:33:40;7.30;;;5.00;;
3627;SDS011;1830;49.000;12.074;2023-04-25T00:36:07;4.83;;;4.33;;
3627;SDS011;1830;49.000;12.074;2023-04-25T00:38:34;5.40;;;4.90;;
3627;SDS011;1830;49.000;12.074;2023-04-25T00:41:04;9.93;;;5.40;;
3627;SDS011;1830;49.000;12.074;2023-04-25T00:43:32;13.90;;;5.03;;
3627;SDS011;1830;49.000;12.074;2023-04-25T00:46:00;6.33;;;5.20;;
3627;SDS011;1830;49.000;12.074;2023-04-25T00:48:27;5.67;;;5.07;;
3627;SDS011;1830;49.000;12.074;2023-04-25T00:50:54;5.43;;;4.90;;
3627;SDS011;1830;49.000;12.074;2023-04-25T00:53:24;12.90;;;5.93;;
3627;SDS011;1830;49.000;12.074;2023-04-25T00:55:51;8.00;;;6.20;;
3627;SDS011;1830;49.000;12.074;2023-04-25T00:58:20;8.77;;;6.20;;
3627;SDS011;1830;49.000;12.074;2023-04-25T01:00:48;9.10;;;6.10;;
3627;SDS011;1830;49.000;12.074;2023-04-25T01:03:17;9.00;;;5.80;;
3627;SDS011;1830;49.000;12.074;2023-04-25T01:05:44;6.90;;;6.20;;
3627;SDS011;1830;49.000;12.074;2023-04-25T01:08:11;6.20;;;5.60;;
3627;SDS011;1830;49.000;12.074;2023-04-25T01:10:39;6.30;;;5.70;;
3627;SDS011;1830;49.000;12.074;2023-04-25T01:13:06;7.10;;;5.60;;
3627;SDS011;1830;49.000;12.074;2023-04-25T01:15:34;9.23;;;6.23;;
3627;SDS011;1830;49.000;12.074;2023-04-25T01:18:01;5.97;;;5.50;;
3627;SDS011;1830;49.000;12.074;2023-04-25T01:20:29;6.77;;;6.17;;
3627;SDS011;1830;49.000;12.074;2023-04-25T01:23:00;7.20;;;6.50;;
3627;SDS011;1830;49.000;12.074;2023-04-25T01:25:28;8.70;;;5.93;;
3627;SDS011;1830;49.000;12.074;2023-04-25T01:27:55;6.80;;;5.43;;
3627;SDS011;1830;49.000;12.074;2023-04-25T01:30:23;6.67;;;5.90;;
3627;SDS011;1830;49.000;12.074;2023-04-25T01:32:51;6.30;;;5.50;;
3627;SDS011;1830;49.000;12.074;2023-04-25T01:35:20;6.40;;;5.47;;
3627;SDS011;1830;49.000;12.074;2023-04-25T01:37:48;7.30;;;5.30;;
3627;SDS011;1830;49.000;12.074;2023-04-25T01:40:17;7.67;;;5.97;;
3627;SDS011;1830;49.000;12.074;2023-04-25T01:42:44;6.67;;;5.90;;
3627;SDS011;1830;49.000;12.074;2023-04-25T01:45:12;5.97;;;5.47;;
3627;SDS011;1830;49.000;12.074;2023-04-25T01:47:39;6.63;;;6.00;;
3627;SDS011;1830;49.000;12.074;2023-04-25T01:50:08;6.03;;;5.53;;
3627;SDS011;1830;49.000;12.074;2023-04-25T01:52:36;8.83;;;5.03;;
3627;SDS011;1830;49.000;12.074;2023-04-25T01:55:03;7.30;;;5.57;;
3627;SDS011;1830;49.000;12.074;2023-04-25T01:57:31;6.90;;;6.20;;
3627;SDS011;1830;49.000;12.074;2023-04-25T01:59:58;5.93;;;5.33;;
3627;SDS011;1830;49.000;12.074;2023-04-25T02:02:27;6.27;;;5.60;;
3627;SDS011;1830;49.000;12.074;2023-04-25T02:04:54;7.40;;;6.67;;
3627;SDS011;1830;49.000;12.074;2023-04-25T02:07:21;6.83;;;6.13;;
3627;SDS011;1830;49.000;12.074;2023-04-25T02:09:48;6.73;;;6.10;;
3627;SDS011;1830;49.000;12.074;2023-04-25T02:12:15;6.27;;;5.77;;
3627;SDS011;1830;49.000;12.074;2023-04-25T02:14:43;6.80;;;6.10;;
3627;SDS011;1830;49.000;12.074;2023-04-25T02:17:10;9.20;;;5.77;;
3627;SDS011;1830;49.000;12.074;2023-04-25T02:19:37;7.93;;;6.20;;
3627;SDS011;1830;49.000;12.074;2023-04-25T02:22:04;6.33;;;5.73;;
3627;SDS011;1830;49.000;12.074;2023-04-25T02:24:31;6.57;;;5.30;;
3627;SDS011;1830;49.000;12.074;2023-04-25T02:26:59;7.17;;;5.63;;
3627;SDS011;1830;49.000;12.074;2023-04-25T02:29:25;5.27;;;4.87;;
3627;SDS011;1830;49.000;12.074;2023-04-25T02:31:53;6.13;;;5.60;;
3627;SDS011;1830;49.000;12.074;2023-04-25T02:34:20;5.80;;;5.30;;
3627;SDS011;1830;49.000;12.074;2023-04-25T02:36:47;9.60;;;5.63;;
3627;SDS011;1830;49.000;12.074;2023-04-25T02:39:14;5.87;;;5.30;;
3627;SDS011;1830;49.000;12.074;2023-04-25T02:41:41;6.43;;;5.90;;
3627;SDS011;1830;49.000;12.074;2023-04-25T02:44:08;10.73;;;6.00;;
3627;SDS011;1830;49.000;12.074;2023-04-25T02:46:35;6.73;;;5.23;;
3627;SDS011;1830;49.000;12.074;2023-04-25T02:49:03;7.13;;;6.07;;
3627;SDS011;1830;49.000;12.074;2023-04-25T02:51:30;10.53;;;6.57;;
3627;SDS011;1830;49.000;12.074;2023-04-25T02:53:57;6.73;;;6.07;;
3627;SDS011;1830;49.000;12.074;2023-04-25T02:56:24;9.33;;;5.20;;
3627;SDS011;1830;49.000;12.074;2023-04-25T02:58:51;13.63;;;6.30;;
3627;SDS011;1830;49.000;12.074;2023-04-25T03:01:18;5.63;;;5.10;;
3627;SDS011;1830;49.000;12.074;2023-04-25T03:03:45;7.20;;;6.20;;
3627;SDS011;1830;49.000;12.074;2023-04-25T03:06:13;6.20;;;5.70;;
3627;SDS011;1830;49.000;12.074;2023-04-25T03:08:40;6.00;;;5.40;;
3627;SDS011;1830;49.000;12.074;2023-04-25T03:11:07;8.63;;;6.00;;
3627;SDS011;1830;49.000;12.074;2023-04-25T03:13:34;8.40;;;5.83;;
3627;SDS011;1830;49.000;12.074;2023-04-25T03:16:01;8.87;;;6.47;;
3627;SDS011;1830;49.000;12.074;2023-04-25T03:18:28;9.33;;;6.20;;
3627;SDS011;1830;49.000;12.074;2023-04-25T03:20:54;8.30;;;5.50;;
3627;SDS011;1830;49.000;12.074;2023-04-25T03:23:23;5.63;;;5.13;;
3627;SDS011;1830;49.000;12.074;2023-04-25T03:25:50;9.53;;;5.30;;
3627;SDS011;1830;49.000;12.074;2023-04-25T03:28:16;7.13;;;5.53;;
3627;SDS011;1830;49.000;12.074;2023-04-25T03:30:43;6.67;;;5.73;;
3627;SDS011;1830;49.000;12.074;2023-04-25T03:33:10;7.07;;;6.27;;
3627;SDS011;1830;49.000;12.074;2023-04-25T03:35:37;7.33;;;5.20;;
3627;SDS011;1830;49.000;12.074;2023-04-25T03:38:03;6.70;;;6.10;;
3627;SDS011;1830;49.000;12.074;2023-04-25T03:40:32;8.23;;;6.63;;
3627;SDS011;1830;49.000;12.074;2023-04-25T03:42:58;7.07;;;6.20;;
3627;SDS011;1830;49.000;12.074;2023-04-25T03:45:25;6.70;;;6.00;;
3627;SDS011;1830;49.000;12.074;2023-04-25T03:47:52;8.00;;;6.23;;
3627;SDS011;1830;49.000;12.074;2023-04-25T03:50:19;6.93;;;6.30;;
3627;SDS011;1830;49.000;12.074;2023-04-25T03:52:47;6.60;;;5.60;;
3627;SDS011;1830;49.000;12.074;2023-04-25T03:55:13;7.70;;;5.47;;
3627;SDS011;1830;49.000;12.074;2023-04-25T03:57:41;9.23;;;6.17;;
3627;SDS011;1830;49.000;12.074;2023-04-25T04:00:09;6.80;;;5.27;;
3627;SDS011;1830;49.000;12.074;2023-04-25T04:02:36;6.37;;;5.77;;
3627;SDS011;1830;49.000;12.074;2023-04-25T04:05:04;7.53;;;6.07;;
3627;SDS011;1830;49.000;12.074;2023-04-25T04:07:31;6.10;;;5.60;;
3627;SDS011;1830;49.000;12.074;2023-04-25T04:10:01;8.67;;;5.50;;
3627;SDS011;1830;49.000;12.074;2023-04-25T04:12:30;6.53;;;5.30;;
3627;SDS011;1830;49.000;12.074;2023-04-25T04:14:58;7.53;;;4.97;;
3627;SDS011;1830;49.000;12.074;2023-04-25T04:17:25;5.93;;;5.33;;
3627;SDS011;1830;49.000;12.074;2023-04-25T04:19:52;9.40;;;7.23;;
3627;SDS011;1830;49.000;12.074;2023-04-25T04:22:19;8.30;;;6.43;;
3627;SDS011;1830;49.000;12.074;2023-04-25T04:24:45;8.90;;;7.63;;
3627;SDS011;1830;49.000;12.074;2023-04-25T04:27:13;13.77;;;6.60;;
3627;SDS011;1830;49.000;12.074;2023-04-25T04:29:40;6.47;;;5.77;;
3627;SDS011;1830;49.000;12.074;2023-04-25T04:32:08;5.90;;;5.13;;
3627;SDS011;1830;49.000;12.074;2023-04-25T04:34:35;5.60;;;5.10;;
3627;SDS011;1830;49.000;12.074;2023-04-25T04:37:02;7.37;;;5.27;;
3627;SDS011;1830;49.000;12.074;2023-04-25T04:39:29;8.60;;;5.70;;
3627;SDS011;1830;49.000;12.074;2023-04-25T04:41:57;8.07;;;5.63;;
3627;SDS011;1830;49.000;12.074;2023-04-25T04:44:24;5.97;;;5.40;;
3627;SDS011;1830;49.000;12.074;2023-04-25T04:46:51;8.27;;;5.97;;
3627;SDS011;1830;49.000;12.074;2023-04-25T04:49:20;7.97;;;5.63;;
3627;SDS011;1830;49.000;12.074;2023-04-25T04:51:47;7.53;;;6.73;;
3627;SDS011;1830;49.000;12.074;2023-04-25T04:54:14;6.67;;;5.90;;
3627;SDS011;1830;49.000;12.074;2023-04-25T04:56:41;7.23;;;6.17;;
3627;SDS011;1830;49.000;12.074;2023-04-25T04:59:08;8.07;;;7.27;;
3627;SDS011;1830;49.000;12.074;2023-04-25T05:01:35;13.80;;;7.73;;
3627;SDS011;1830;49.000;12.074;2023-04-25T05:04:02;30.30;;;7.33;;
3627;SDS011;1830;49.000;12.074;2023-04-25T05:06:30;7.70;;;6.80;;
3627;SDS011;1830;49.000;12.074;2023-04-25T05:08:57;11.70;;;7.10;;
3627;SDS011;1830;49.000;12.074;2023-04-25T05:11:24;10.40;;;9.30;;
3627;SDS011;1830;49.000;12.074;2023-04-25T05:13:52;10.47;;;8.50;;
3627;SDS011;1830;49.000;12.074;2023-04-25T05:16:19;9.73;;;8.73;;
3627;SDS011;1830;49.000;12.074;2023-04-25T05:18:45;9.47;;;7.80;;
3627;SDS011;1830;49.000;12.074;2023-04-25T05:21:13;9.93;;;8.07;;
3627;SDS011;1830;49.000;12.074;2023-04-25T05:23:43;10.83;;;8.50;;
3627;SDS011;1830;49.000;12.074;2023-04-25T05:26:10;11.40;;;7.93;;
3627;SDS011;1830;49.000;12.074;2023-04-25T05:28:38;9.47;;;7.20;;
3627;SDS011;1830;49.000;12.074;2023-04-25T05:31:06;8.90;;;6.93;;
3627;SDS011;1830;49.000;12.074;2023-04-25T05:33:32;11.90;;;8.07;;
3627;SDS011;1830;49.000;12.074;2023-04-25T05:35:59;9.07;;;7.47;;
3627;SDS011;1830;49.000;12.074;2023-04-25T05:38:26;9.17;;;7.80;;
3627;SDS011;1830;49.000;12.074;2023-04-25T05:40:54;9.53;;;7.20;;
3627;SDS011;1830;49.000;12.074;2023-04-25T05:43:21;8.30;;;7.47;;
3627;SDS011;1830;49.000;12.074;2023-04-25T05:45:48;10.07;;;7.60;;
3627;SDS011;1830;49.000;12.074;2023-04-25T05:48:15;7.20;;;6.10;;
3627;SDS011;1830;49.000;12.074;2023-04-25T05:50:42;7.90;;;7.03;;
3627;SDS011;1830;49.000;12.074;2023-04-25T05:53:09;10.60;;;7.63;;
3627;SDS011;1830;49.000;12.074;2023-04-25T05:55:36;11.23;;;7.20;;
3627;SDS011;1830;49.000;12.074;2023-04-25T05:58:04;10.90;;;6.40;;
3627;SDS011;1830;49.000;12.074;2023-04-25T06:00:31;8.37;;;6.53;;
3627;SDS011;1830;49.000;12.074;2023-04-25T06:02:58;24.20;;;8.63;;
3627;SDS011;1830;49.000;12.074;2023-04-25T06:05:25;8.53;;;7.67;;
3627;SDS011;1830;49.000;12.074;2023-04-25T06:07:52;9.87;;;7.07;;
3627;SDS011;1830;49.000;12.074;2023-04-25T06:10:19;8.40;;;6.43;;
3627;SDS011;1830;49.000;12.074;2023-04-25T06:12:47;10.53;;;6.77;;
3627;SDS011;1830;49.000;12.074;2023-04-25T06:15:17;11.40;;;6.20;;
3627;SDS011;1830;49.000;12.074;2023-04-25T06:17:44;6.23;;;5.63;;
3627;SDS011;1830;49.000;12.074;2023-04-25T06:20:11;8.53;;;5.70;;
3627;SDS011;1830;49.000;12.074;2023-04-25T06:22:38;6.33;;;5.83;;
3627;SDS011;1830;49.000;12.074;2023-04-25T06:25:19;8.23;;;6.13;;
3627;SDS011;1830;49.000;12.074;2023-04-25T06:27:46;14.73;;;5.40;;
3627;SDS011;1830;49.000;12.074;2023-04-25T06:30:13;5.00;;;4.50;;
3627;SDS011;1830;49.000;12.074;2023-04-25T06:32:41;9.10;;;5.27;;
3627;SDS011;1830;49.000;12.074;2023-04-25T06:35:08;7.93;;;7.10;;
3627;SDS011;1830;49.000;12.074;2023-04-25T06:37:35;10.00;;;5.20;;
3627;SDS011;1830;49.000;12.074;2023-04-25T06:40:02;6.93;;;4.70;;
3627;SDS011;1830;49.000;12.074;2023-04-25T06:42:29;6.10;;;5.30;;
3627;SDS011;1830;49.000;12.074;2023-04-25T06:44:56;8.70;;;5.60;;
3627;SDS011;1830;49.000;12.074;2023-04-25T06:47:23;6.67;;;4.97;;
3627;SDS011;1830;49.000;12.074;2023-04-25T06:49:51;6.27;;;4.80;;
3627;SDS011;1830;49.000;12.074;2023-04-25T06:52:18;9.10;;;4.70;;
3627;SDS011;1830;49.000;12.074;2023-04-25T06:54:44;6.03;;;4.93;;
3627;SDS011;1830;49.000;12.074;2023-04-25T06:57:11;11.30;;;6.77;;
3627;SDS011;1830;49.000;12.074;2023-04-25T06:59:38;8.83;;;6.70;;
3627;SDS011;1830;49.000;12.074;2023-04-25T07:02:05;6.23;;;4.97;;
3627;SDS011;1830;49.000;12.074;2023-04-25T07:04:32;8.73;;;5.30;;
3627;SDS011;1830;49.000;12.074;2023-04-25T07:07:00;7.07;;;5.23;;
3627;SDS011;1830;49.000;12.074;2023-04-25T07:09:28;7.20;;;5.10;;
3627;SDS011;1830;49.000;12.074;2023-04-25T07:11:55;5.63;;;4.97;;
3627;SDS011;1830;49.000;12.074;2023-04-25T07:14:22;6.13;;;4.83;;
3627;SDS011;1830;49.000;12.074;2023-04-25T07:16:49;6.20;;;5.70;;
3627;SDS011;1830;49.000;12.074;2023-04-25T07:19:16;6.93;;;5.03;;
3627;SDS011;1830;49.000;12.074;2023-04-25T07:21:42;6.53;;;5.57;;
3627;SDS011;1830;49.000;12.074;2023-04-25T07:24:11;7.37;;;5.17;;
3627;SDS011;1830;49.000;12.074;2023-04-25T07:26:37;6.23;;;4.57;;
3627;SDS011;1830;49.000;12.074;2023-04-25T07:29:04;6.60;;;5.90;;
3627;SDS011;1830;49.000;12.074;2023-04-25T07:31:31;6.07;;;4.27;;
3627;SDS011;1830;49.000;12.074;2023-04-25T07:33:58;4.53;;;4.13;;
3627;SDS011;1830;49.000;12.074;2023-04-25T07:36:25;5.33;;;4.20;;
3627;SDS011;1830;49.000;12.074;2023-04-25T07:38:52;4.40;;;4.10;;
3627;SDS011;1830;49.000;12.074;2023-04-25T07:41:20;5.23;;;4.73;;
3627;SDS011;1830;49.000;12.074;2023-04-25T07:43:47;6.30;;;4.73;;
3627;SDS011;1830;49.000;12.074;2023-04-25T07:46:13;5.47;;;4.90;;
3627;SDS011;1830;49.000;12.074;2023-04-25T07:48:40;5.23;;;4.80;;
3627;SDS011;1830;49.000;12.074;2023-04-25T07:51:07;5.40;;;5.00;;
3627;SDS011;1830;49.000;12.074;2023-04-25T07:53:34;6.47;;;4.83;;
3627;SDS011;1830;49.000;12.074;2023-04-25T07:56:02;6.33;;;4.73;;
3627;SDS011;1830;49.000;12.074;2023-04-25T07:58:30;5.70;;;5.20;;
3627;SDS011;1830;49.000;12.074;2023-04-25T08:00:57;8.43;;;5.80;;
3627;SDS011;1830;49.000;12.074;2023-04-25T08:03:24;7.10;;;4.83;;
3627;SDS011;1830;49.000;12.074;2023-04-25T08:05:51;6.07;;;5.03;;
3627;SDS011;1830;49.000;12.074;2023-04-25T08:08:18;5.10;;;4.30;;
3627;SDS011;1830;49.000;12.074;2023-04-25T08:10:45;8.30;;;5.30;;
3627;SDS011;1830;49.000;12.074;2023-04-25T08:13:13;8.10;;;5.20;;
3627;SDS011;1830;49.000;12.074;2023-04-25T08:15:41;14.30;;;5.40;;
3627;SDS011;1830;49.000;12.074;2023-04-25T08:18:08;8.73;;;4.20;;
3627;SDS011;1830;49.000;12.074;2023-04-25T08:20:35;5.13;;;4.63;;
3627;SDS011;1830;49.000;12.074;2023-04-25T08:23:01;5.37;;;4.87;;
3627;SDS011;1830;49.000;12.074;2023-04-25T08:25:28;5.03;;;4.53;;
3627;SDS011;1830;49.000;12.074;2023-04-25T08:27:55;5.23;;;4.50;;
3627;SDS011;1830;49.000;12.074;2023-04-25T08:30:24;4.83;;;4.33;;
3627;SDS011;1830;49.000;12.074;2023-04-25T08:32:53;5.83;;;4.50;;
3627;SDS011;1830;49.000;12.074;2023-04-25T08:35:20;4.80;;;4.47;;
3627;SDS011;1830;49.000;12.074;2023-04-25T08:37:47;7.33;;;4.40;;
3627;SDS011;1830;49.000;12.074;2023-04-25T08:40:15;6.73;;;4.83;;
3627;SDS011;1830;49.000;12.074;2023-04-25T08:42:42;10.53;;;5.03;;
3627;SDS011;1830;49.000;12.074;2023-04-25T08:45:09;4.47;;;4.13;;
3627;SDS011;1830;49.000;12.074;2023-04-25T08:47:37;6.90;;;5.27;;
3627;SDS011;1830;49.000;12.074;2023-04-25T08:50:06;4.63;;;4.20;;
3627;SDS011;1830;49.000;12.074;2023-04-25T08:52:35;4.70;;;4.27;;
3627;SDS011;1830;49.000;12.074;2023-04-25T08:55:03;5.03;;;4.60;;
3627;SDS011;1830;49.000;12.074;2023-04-25T08:57:33;5.57;;;4.77;;
3627;SDS011;1830;49.000;12.074;2023-04-25T09:00:01;7.23;;;5.20;;
3627;SDS011;1830;49.000;12.074;2023-04-25T09:02:28;4.90;;;4.43;;
3627;SDS011;1830;49.000;12.074;2023-04-25T09:04:55;6.70;;;5.07;;
3627;SDS011;1830;49.000;12.074;2023-04-25T09:07:23;8.10;;;6.10;;
3627;SDS011;1830;49.000;12.074;2023-04-25T09:09:50;7.27;;;5.47;;
3627;SDS011;1830;49.000;12.074;2023-04-25T09:12:18;7.70;;;4.97;;
3627;SDS011;1830;49.000;12.074;2023-04-25T09:15:00;4.60;;;4.20;;
3627;SDS011;1830;49.000;12.074;2023-04-25T09:17:31;3.43;;;3.20;;
3627;SDS011;1830;49.000;12.074;2023-04-25T09:20:05;4.63;;;4.00;;
3627;SDS011;1830;49.000;12.074;2023-04-25T09:22:35;4.60;;;4.20;;
3627;SDS011;1830;49.000;12.074;2023-04-25T09:25:02;6.70;;;4.10;;
3627;SDS011;1830;49.000;12.074;2023-04-25T09:27:33;4.90;;;4.50;;
3627;SDS011;1830;49.000;12.074;2023-04-25T09:30:00;7.00;;;5.47;;
3627;SDS011;1830;49.000;12.074;2023-04-25T09:32:28;4.90;;;4.43;;
3627;SDS011;1830;49.000;12.074;2023-04-25T09:34:55;9.13;;;6.80;;
3627;SDS011;1830;49.000;12.074;2023-04-25T09:37:23;7.50;;;4.90;;
3627;SDS011;1830;49.000;12.074;2023-04-25T09:39:53;5.20;;;4.30;;
3627;SDS011;1830;49.000;12.074;2023-04-25T09:42:22;3.17;;;2.93;;
3627;SDS011;1830;49.000;12.074;2023-04-25T09:44:51;3.30;;;3.10;;
3627;SDS011;1830;49.000;12.074;2023-04-25T09:47:19;3.80;;;3.50;;
3627;SDS011;1830;49.000;12.074;2023-04-25T09:49:48;4.30;;;3.90;;
3627;SDS011;1830;49.000;12.074;2023-04-25T09:52:16;5.83;;;4.97;;
3627;SDS011;1830;49.000;12.074;2023-04-25T09:54:44;11.83;;;4.93;;
3627;SDS011;1830;49.000;12.074;2023-04-25T09:57:13;5.27;;;4.87;;
3627;SDS011;1830;49.000;12.074;2023-04-25T09:59:45;5.97;;;5.20;;
3627;SDS011;1830;49.000;12.074;2023-04-25T10:02:14;5.87;;;5.37;;
3627;SDS011;1830;49.000;12.074;2023-04-25T10:04:42;5.20;;;4.80;;
3627;SDS011;1830;49.000;12.074;2023-04-25T10:07:11;7.93;;;5.57;;
3627;SDS011;1830;49.000;12.074;2023-04-25T10:09:38;5.30;;;4.90;;
3627;SDS011;1830;49.000;12.074;2023-04-25T10:12:06;5.67;;;5.13;;
3627;SDS011;1830;49.000;12.074;2023-04-25T10:14:35;5.27;;;4.80;;
3627;SDS011;1830;49.000;12.074;2023-04-25T10:17:02;4.80;;;4.40;;
3627;SDS011;1830;49.000;12.074;2023-04-25T10:19:29;5.03;;;4.63;;
3627;SDS011;1830;49.000;12.074;2023-04-25T10:21:58;4.10;;;3.80;;
3627;SDS011;1830;49.000;12.074;2023-04-25T10:24:31;3.90;;;3.53;;
3627;SDS011;1830;49.000;12.074;2023-04-25T10:26:58;4.60;;;4.30;;
3627;SDS011;1830;49.000;12.074;2023-04-25T10:29:27;5.07;;;4.67;;
3627;SDS011;1830;49.000;12.074;2023-04-25T10:31:55;8.40;;;5.13;;
3627;SDS011;1830;49.000;12.074;2023-04-25T10:34:24;7.37;;;5.60;;
3627;SDS011;1830;49.000;12.074;2023-04-25T10:37:03;10.67;;;7.07;;
3627;SDS011;1830;49.000;12.074;2023-04-25T10:39:30;23.90;;;16.50;;
3627;SDS011;1830;49.000;12.074;2023-04-25T10:41:59;11.17;;;8.10;;
3627;SDS011;1830;49.000;12.074;2023-04-25T10:44:28;8.17;;;6.80;;
3627;SDS011;1830;49.000;12.074;2023-04-25T10:47:00;8.10;;;7.40;;
3627;SDS011;1830;49.000;12.074;2023-04-25T10:49:28;14.90;;;7.93;;
3627;SDS011;1830;49.000;12.074;2023-04-25T10:52:12;8.07;;;7.13;;
3627;SDS011;1830;49.000;12.074;2023-04-25T10:54:41;8.90;;;8.00;;
3627;SDS011;1830;49.000;12.074;2023-04-25T11:00:01;6.80;;;6.20;;
3627;SDS011;1830;49.000;12.074;2023-04-25T11:02:37;7.53;;;6.80;;
3627;SDS011;1830;49.000;12.074;2023-04-25T11:05:08;7.17;;;5.73;;
3627;SDS011;1830;49.000;12.074;2023-04-25T11:07:37;6.30;;;5.70;;
3627;SDS011;1830;49.000;12.074;2023-04-25T11:10:09;7.87;;;6.60;;
3627;SDS011;1830;49.000;12.074;2023-04-25T11:12:36;3.83;;;3.63;;
3627;SDS011;1830;49.000;12.074;2023-04-25T11:15:03;3.57;;;3.27;;
3627;SDS011;1830;49.000;12.074;2023-04-25T11:17:31;3.80;;;3.50;;
3627;SDS011;1830;49.000;12.074;2023-04-25T11:20:00;3.40;;;3.10;;
3627;SDS011;1830;49.000;12.074;2023-04-25T11:22:31;3.60;;;3.30;;
3627;SDS011;1830;49.000;12.074;2023-04-25T11:25:04;5.63;;;2.77;;
3627;SDS011;1830;49.000;12.074;2023-04-25T11:27:31;3.50;;;2.00;;
3627;SDS011;1830;49.000;12.074;2023-04-25T11:29:58;2.30;;;2.20;;
3627;SDS011;1830;49.000;12.074;2023-04-25T11:32:25;4.43;;;2.70;;
3627;SDS011;1830;49.000;12.074;2023-04-25T11:34:52;4.17;;;2.87;;
3627;SDS011;1830;49.000;12.074;2023-04-25T11:37:21;3.27;;;2.90;;
3627;SDS011;1830;49.000;12.074;2023-04-25T11:39:48;3.27;;;3.07;;
3627;SDS011;1830;49.000;12.074;2023-04-25T11:42:15;5.47;;;3.60;;
3627;SDS011;1830;49.000;12.074;2023-04-25T11:44:41;3.53;;;3.23;;
3627;SDS011;1830;49.000;12.074;2023-04-25T11:47:09;9.80;;;5.30;;
3627;SDS011;1830;49.000;12.074;2023-04-25T11:49:36;4.50;;;3.93;;
3627;SDS011;1830;49.000;12.074;2023-04-25T11:52:03;6.00;;;5.50;;
3627;SDS011;1830;49.000;12.074;2023-04-25T11:54:36;4.30;;;3.90;;
3627;SDS011;1830;49.000;12.074;2023-04-25T11:57:03;4.17;;;3.67;;
3627;SDS011;1830;49.000;12.074;2023-04-25T11:59:30;5.97;;;4.50;;
3627;SDS011;1830;49.000;12.074;2023-04-25T12:01:57;5.80;;;4.60;;
3627;SDS011;1830;49.000;12.074;2023-04-25T12:04:25;3.67;;;3.37;;
3627;SDS011;1830;49.000;12.074;2023-04-25T12:06:53;5.63;;;3.83;;
3627;SDS011;1830;49.000;12.074;2023-04-25T12:09:21;4.50;;;3.93;;
3627;SDS011;1830;49.000;12.074;2023-04-25T12:11:57;3.80;;;3.30;;
3627;SDS011;1830;49.000;12.074;2023-04-25T12:14:27;3.17;;;2.90;;
3627;SDS011;1830;49.000;12.074;2023-04-25T12:16:56;3.57;;;3.10;;
3627;SDS011;1830;49.000;12.074;2023-04-25T12:19:24;3.73;;;3.50;;
3627;SDS011;1830;49.000;12.074;2023-04-25T12:21:52;5.97;;;3.43;;
3627;SDS011;1830;49.000;12.074;2023-04-25T12:24:21;5.10;;;3.87;;
3627;SDS011;1830;49.000;12.074;2023-04-25T12:26:50;5.50;;;4.20;;
3627;SDS011;1830;49.000;12.074;2023-04-25T12:29:21;6.03;;;4.53;;
3627;SDS011;1830;49.000;12.074;2023-04-25T12:31:49;4.07;;;3.67;;
3627;SDS011;1830;49.000;12.074;2023-04-25T12:34:17;3.60;;;3.33;;
3627;SDS011;1830;49.000;12.074;2023-04-25T12:36:44;3.47;;;3.27;;
3627;SDS011;1830;49.000;12.074;2023-04-25T12:39:14;3.87;;;3.50;;
3627;SDS011;1830;49.000;12.074;2023-04-25T12:41:42;4.20;;;3.33;;
3627;SDS011;1830;49.000;12.074;2023-04-25T12:44:09;5.60;;;3.37;;
3627;SDS011;1830;49.000;12.074;2023-04-25T12:46:38;4.10;;;3.60;;
3627;SDS011;1830;49.000;12.074;2023-04-25T12:49:05;12.40;;;4.27;;
3627;SDS011;1830;49.000;12.074;2023-04-25T12:51:33;3.50;;;3.30;;
3627;SDS011;1830;49.000;12.074;2023-04-25T12:54:00;3.40;;;3.10;;
3627;SDS011;1830;49.000;12.074;2023-04-25T12:56:27;3.47;;;3.20;;
3627;SDS011;1830;49.000;12.074;2023-04-25T12:58:54;3.67;;;3.07;;
3627;SDS011;1830;49.000;12.074;2023-04-25T13:01:22;3.07;;;2.83;;
3627;SDS011;1830;49.000;12.074;2023-04-25T13:03:51;5.63;;;3.50;;
3627;SDS011;1830;49.000;12.074;2023-04-25T13:06:18;3.30;;;3.10;;
3627;SDS011;1830;49.000;12.074;2023-04-25T13:08:46;5.63;;;3.63;;
3627;SDS011;1830;49.000;12.074;2023-04-25T13:11:13;3.90;;;3.60;;
3627;SDS011;1830;49.000;12.074;2023-04-25T13:13:40;5.40;;;3.40;;
3627;SDS011;1830;49.000;12.074;2023-04-25T13:16:07;3.80;;;3.50;;
3627;SDS011;1830;49.000;12.074;2023-04-25T13:18:34;4.50;;;3.63;;
3627;SDS011;1830;49.000;12.074;2023-04-25T13:21:02;3.77;;;3.43;;
3627;SDS011;1830;49.000;12.074;2023-04-25T13:23:29;4.90;;;3.63;;
3627;SDS011;1830;49.000;12.074;2023-04-25T13:25:56;4.77;;;3.80;;
3627;SDS011;1830;49.000;12.074;2023-04-25T13:28:24;6.77;;;4.00;;
3627;SDS011;1830;49.000;12.074;2023-04-25T13:30:51;4.67;;;3.80;;
3627;SDS011;1830;49.000;12.074;2023-04-25T13:33:18;4.57;;;4.17;;
3627;SDS011;1830;49.000;12.074;2023-04-25T13:35:46;10.43;;;3.97;;
3627;SDS011;1830;49.000;12.074;2023-04-25T13:38:20;7.70;;;5.20;;
3627;SDS011;1830;49.000;12.074;2023-04-25T13:40:47;6.33;;;4.70;;
3627;SDS011;1830;49.000;12.074;2023-04-25T13:43:17;13.63;;;4.57;;
3627;SDS011;1830;49.000;12.074;2023-04-25T13:45:44;5.43;;;4.90;;
3627;SDS011;1830;49.000;12.074;2023-04-25T13:48:11;5.07;;;4.53;;
3627;SDS011;1830;49.000;12.074;2023-04-25T13:50:38;8.73;;;4.70;;
3627;SDS011;1830;49.000;12.074;2023-04-25T13:53:05;6.27;;;4.90;;
3627;SDS011;1830;49.000;12.074;2023-04-25T13:55:33;6.27;;;4.80;;
3627;SDS011;1830;49.000;12.074;2023-04-25T13:58:01;7.37;;;4.47;;
3627;SDS011;1830;49.000;12.074;2023-04-25T14:00:32;5.10;;;4.60;;
3627;SDS011;1830;49.000;12.074;2023-04-25T14:03:00;4.37;;;3.97;;
3627;SDS011;1830;49.000;12.074;2023-04-25T14:05:29;4.30;;;3.67;;
3627;SDS011;1830;49.000;12.074;2023-04-25T14:07:57;4.20;;;3.80;;
3627;SDS011;1830;49.000;12.074;2023-04-25T14:10:24;4.37;;;3.20;;
3627;SDS011;1830;49.000;12.074;2023-04-25T14:12:52;7.47;;;4.20;;
3627;SDS011;1830;49.000;12.074;2023-04-25T14:15:19;4.57;;;3.43;;
3627;SDS011;1830;49.000;12.074;2023-04-25T14:17:46;3.37;;;3.07;;
3627;SDS011;1830;49.000;12.074;2023-04-25T14:20:14;3.70;;;3.40;;
3627;SDS011;1830;49.000;12.074;2023-04-25T14:22:40;6.00;;;3.77;;
3627;SDS011;1830;49.000;12.074;2023-04-25T14:25:08;5.33;;;3.33;;
3627;SDS011;1830;49.000;12.074;2023-04-25T14:27:35;3.90;;;3.00;;
3627;SDS011;1830;49.000;12.074;2023-04-25T14:30:04;3.37;;;3.07;;
3627;SDS011;1830;49.000;12.074;2023-04-25T14:32:34;4.20;;;3.70;;
3627;SDS011;1830;49.000;12.074;2023-04-25T14:35:01;5.70;;;3.07;;
3627;SDS011;1830;49.000;12.074;2023-04-25T14:37:28;3.43;;;3.13;;
3627;SDS011;1830;49.000;12.074;2023-04-25T14:39:55;6.23;;;3.07;;
3627;SDS011;1830;49.000;12.074;2023-04-25T14:42:21;4.73;;;3.40;;
3627;SDS011;1830;49.000;12.074;2023-04-25T14:44:48;33.07;;;3.30;;
3627;SDS011;1830;49.000;12.074;2023-04-25T14:47:17;10.33;;;2.40;;
3627;SDS011;1830;49.000;12.074;2023-04-25T14:49:45;5.30;;;3.30;;
3627;SDS011;1830;49.000;12.074;2023-04-25T14:52:18;4.10;;;3.03;;
3627;SDS011;1830;49.000;12.074;2023-04-25T14:54:45;2.33;;;2.10;;
3627;SDS011;1830;49.000;12.074;2023-04-25T14:57:12;2.57;;;2.37;;
3627;SDS011;1830;49.000;12.074;2023-04-25T14:59:39;3.33;;;2.80;;
3627;SDS011;1830;49.000;12.074;2023-04-25T15:02:06;2.37;;;2.13;;
3627;SDS011;1830;49.000;12.074;2023-04-25T15:04:34;1.90;;;1.80;;
3627;SDS011;1830;49.000;12.074;2023-04-25T15:07:01;2.80;;;2.27;;